createdAt,value
2019-04-29T00:01:01.275Z,2.37
2019-04-29T00:06:30.747Z,2.37
2019-04-29T00:12:00.213Z,2.73
2019-04-29T00:17:31.320Z,3.53
2019-04-29T00:23:00.770Z,3.00
2019-04-29T00:28:30.198Z,2.90
2019-04-29T00:33:59.544Z,3.83
2019-04-29T00:39:30.650Z,2.47
2019-04-29T00:45:00.251Z,2.67
2019-04-29T00:50:29.785Z,2.63
2019-04-29T00:56:00.824Z,3.00
2019-04-29T01:01:30.401Z,6.87
2019-04-29T01:06:59.865Z,2.70
2019-04-29T01:12:29.170Z,4.60
2019-04-29T01:17:58.709Z,2.80
2019-04-29T01:23:28.196Z,5.97
2019-04-29T01:29:05.180Z,3.10
2019-04-29T01:34:36.171Z,4.60
2019-04-29T01:40:08.289Z,3.27
2019-04-29T01:45:38.262Z,7.50
2019-04-29T01:51:07.712Z,4.83
2019-04-29T01:56:37.169Z,4.73
2019-04-29T02:02:06.755Z,4.90
2019-04-29T02:07:36.163Z,5.03
2019-04-29T02:13:05.632Z,5.53
2019-04-29T02:18:35.024Z,4.50
2019-04-29T02:24:12.030Z,3.93
2019-04-29T02:29:41.451Z,5.00
2019-04-29T02:35:11.132Z,6.53
2019-04-29T02:40:47.741Z,3.63
2019-04-29T02:46:17.140Z,6.50
2019-04-29T02:51:48.163Z,6.40
2019-04-29T02:57:21.968Z,6.17
2019-04-29T03:02:58.943Z,6.43
2019-04-29T03:08:28.314Z,5.30
2019-04-29T03:13:57.645Z,6.90
2019-04-29T03:19:28.794Z,11.00
2019-04-29T03:24:58.115Z,9.27
2019-04-29T03:30:27.967Z,6.03
2019-04-29T03:35:57.733Z,6.10
2019-04-29T03:41:27.240Z,7.87
2019-04-29T03:46:56.697Z,7.60
2019-04-29T03:52:26.034Z,8.07
2019-04-29T03:57:56.153Z,7.00
2019-04-29T04:03:27.284Z,5.87
2019-04-29T04:09:06.229Z,7.57
2019-04-29T04:14:43.928Z,7.50
2019-04-29T04:20:14.241Z,7.63
2019-04-29T04:25:43.848Z,8.53
2019-04-29T04:31:13.151Z,7.33
2019-04-29T04:36:42.505Z,9.33
2019-04-29T04:42:18.103Z,9.67
2019-04-29T04:47:47.532Z,5.97
2019-04-29T04:53:17.129Z,4.47
2019-04-29T04:58:46.489Z,8.67
2019-04-29T05:04:15.794Z,6.13
2019-04-29T05:09:46.259Z,8.70
2019-04-29T05:15:16.697Z,7.17
2019-04-29T05:20:46.075Z,11.43
2019-04-29T05:26:15.540Z,7.70
2019-04-29T05:31:44.973Z,10.50
2019-04-29T05:37:21.819Z,8.77
2019-04-29T05:42:52.489Z,10.40
2019-04-29T05:48:22.222Z,12.10
2019-04-29T05:53:55.189Z,13.03
2019-04-29T05:59:24.361Z,13.20
2019-04-29T06:04:54.063Z,9.23
2019-04-29T06:10:24.737Z,18.33
2019-04-29T06:15:54.215Z,9.33
2019-04-29T06:21:23.543Z,6.10
2019-04-29T06:26:52.896Z,13.30
2019-04-29T06:32:24.973Z,12.93
2019-04-29T06:37:53.282Z,11.03
2019-04-29T06:43:24.704Z,9.80
2019-04-29T06:48:53.795Z,16.07
2019-04-29T06:54:23.115Z,7.70
2019-04-29T06:59:54.785Z,10.10
2019-04-29T07:05:23.466Z,9.43
2019-04-29T07:10:55.841Z,9.70
2019-04-29T07:16:26.831Z,13.90
2019-04-29T07:21:56.536Z,9.70
2019-04-29T07:27:25.929Z,14.37
2019-04-29T07:32:55.332Z,12.43
2019-04-29T07:38:24.667Z,18.30
2019-04-29T07:43:54.071Z,15.37
2019-04-29T07:49:23.477Z,15.27
2019-04-29T07:54:56.071Z,10.67
2019-04-29T08:00:33.254Z,15.10
2019-04-29T08:06:02.751Z,12.97
2019-04-29T08:11:32.299Z,13.37
2019-04-29T08:17:01.695Z,11.20
2019-04-29T08:22:31.016Z,15.03
2019-04-29T08:28:00.335Z,10.77
2019-04-29T08:33:29.718Z,11.80
2019-04-29T08:39:08.305Z,18.20
2019-04-29T08:44:31.801Z,14.70
2019-04-29T08:50:01.301Z,16.27
2019-04-29T08:55:33.968Z,19.63
2019-04-29T09:01:01.773Z,14.20
2019-04-29T09:06:32.604Z,13.50
2019-04-29T09:12:02.117Z,13.43
2019-04-29T09:17:31.445Z,16.93
2019-04-29T09:23:02.419Z,15.03
2019-04-29T09:28:31.808Z,13.20
2019-04-29T09:34:06.734Z,12.87
2019-04-29T09:39:43.106Z,14.30
2019-04-29T09:45:08.457Z,14.70
2019-04-29T09:50:39.064Z,16.17
2019-04-29T09:56:09.143Z,17.73
2019-04-29T10:01:40.150Z,16.70
2019-04-29T10:07:11.343Z,18.77
2019-04-29T10:12:40.733Z,15.73
2019-04-29T10:18:11.806Z,17.90
2019-04-29T10:23:41.263Z,16.43
2019-04-29T10:29:18.598Z,13.77
2019-04-29T10:34:46.193Z,19.43
2019-04-29T10:40:22.124Z,14.13
2019-04-29T10:46:09.330Z,18.27
2019-04-29T10:51:40.859Z,14.47
2019-04-29T10:57:14.695Z,9.33
2019-04-29T11:02:44.771Z,11.83
2019-04-29T11:08:15.535Z,12.03
2019-04-29T11:13:49.847Z,14.83
2019-04-29T11:19:16.132Z,19.17
2019-04-29T11:24:53.033Z,21.50
2019-04-29T11:30:24.056Z,8.53
2019-04-29T11:35:55.042Z,8.70
2019-04-29T11:41:27.600Z,16.63
2019-04-29T11:46:57.424Z,15.03
2019-04-29T11:52:28.097Z,9.60
2019-04-29T11:57:59.713Z,11.03
2019-04-29T12:03:33.827Z,22.63
2019-04-29T12:09:06.604Z,10.90
2019-04-29T12:14:49.101Z,21.23
2019-04-29T12:20:26.063Z,9.83
2019-04-29T12:25:58.729Z,6.30
2019-04-29T12:31:31.114Z,8.67
2019-04-29T12:37:00.731Z,5.03
2019-04-29T12:42:44.041Z,11.53
2019-04-29T12:48:24.538Z,8.93
2019-04-29T12:53:44.909Z,15.73
2019-04-29T12:59:14.352Z,9.00
2019-04-29T13:04:49.879Z,5.97
2019-04-29T13:10:21.241Z,9.57
2019-04-29T13:15:55.241Z,7.27
2019-04-29T13:21:24.726Z,6.30
2019-04-29T13:26:54.211Z,9.17
2019-04-29T13:32:25.414Z,11.93
2019-04-29T13:37:54.895Z,9.03
2019-04-29T13:43:25.901Z,9.60
2019-04-29T13:49:06.373Z,13.17
2019-04-29T13:54:28.173Z,6.60
2019-04-29T14:00:01.566Z,9.20
2019-04-29T14:05:36.715Z,5.50
2019-04-29T14:11:03.939Z,7.30
2019-04-29T14:16:33.703Z,9.43
2019-04-29T14:22:03.063Z,8.63
2019-04-29T14:27:32.390Z,9.10
2019-04-29T14:33:03.169Z,9.50
2019-04-29T14:38:35.966Z,8.80
2019-04-29T14:44:05.710Z,6.33
2019-04-29T14:49:40.895Z,8.50
2019-04-29T14:55:14.781Z,9.97
2019-04-29T15:00:45.812Z,8.40
2019-04-29T15:06:15.178Z,10.43
2019-04-29T15:11:47.462Z,7.53
2019-04-29T15:17:27.703Z,6.60
2019-04-29T15:22:57.121Z,9.33
2019-04-29T15:28:26.442Z,8.83
2019-04-29T15:33:55.775Z,8.67
2019-04-29T15:39:25.970Z,8.33
2019-04-29T15:44:56.119Z,6.57
2019-04-29T15:50:26.198Z,6.13
2019-04-29T15:56:06.712Z,12.03
2019-04-29T16:01:30.352Z,8.83
2019-04-29T16:07:00.992Z,9.70
2019-04-29T16:12:45.277Z,12.70
2019-04-29T16:18:14.738Z,13.37
2019-04-29T16:23:43.448Z,8.93
2019-04-29T16:29:15.422Z,11.30
2019-04-29T16:34:46.919Z,12.77
2019-04-29T16:40:15.579Z,14.33
2019-04-29T16:45:51.740Z,13.20
2019-04-29T16:51:17.797Z,11.40
2019-04-29T16:56:47.211Z,16.37
2019-04-29T17:02:19.615Z,14.73
2019-04-29T17:07:48.061Z,13.10
2019-04-29T17:13:23.395Z,10.87
2019-04-29T17:18:48.713Z,13.60
2019-04-29T17:24:18.423Z,13.10
2019-04-29T17:30:07.798Z,15.60
2019-04-29T17:35:38.311Z,14.83
2019-04-29T17:41:09.714Z,13.13
2019-04-29T17:46:43.544Z,13.27
2019-04-29T17:52:15.865Z,14.77
2019-04-29T17:58:03.015Z,17.67
2019-04-29T18:03:52.541Z,13.37
2019-04-29T18:09:36.615Z,12.23
2019-04-29T18:15:10.762Z,19.40
2019-04-29T18:20:42.685Z,13.73
2019-04-29T18:26:28.552Z,14.83
2019-04-29T18:32:00.554Z,14.07
2019-04-29T18:37:30.379Z,13.87
2019-04-29T18:43:00.645Z,18.10
2019-04-29T18:48:30.056Z,17.87
2019-04-29T18:54:01.428Z,16.07
2019-04-29T18:59:33.232Z,19.97
2019-04-29T19:05:20.591Z,23.00
2019-04-29T19:10:52.171Z,15.63
2019-04-29T19:16:22.042Z,15.77
2019-04-29T19:21:52.456Z,16.00
2019-04-29T19:27:21.999Z,14.43
2019-04-29T19:32:55.608Z,12.93
2019-04-29T19:38:22.486Z,19.83
2019-04-29T19:43:55.144Z,13.03
2019-04-29T19:49:22.877Z,17.00
2019-04-29T19:54:57.417Z,16.27
2019-04-29T20:00:29.445Z,13.80
2019-04-29T20:06:08.427Z,14.40
2019-04-29T20:11:33.548Z,15.27
2019-04-29T20:17:20.872Z,10.93
2019-04-29T20:22:51.345Z,13.80
2019-04-29T20:28:21.625Z,16.20
2019-04-29T20:33:51.345Z,15.70
2019-04-29T20:39:23.558Z,19.80
2019-04-29T20:44:52.022Z,16.13
2019-04-29T20:50:21.734Z,18.93
2019-04-29T20:55:51.436Z,15.90
2019-04-29T21:01:22.680Z,15.30
2019-04-29T21:07:01.804Z,14.87
2019-04-29T21:12:36.731Z,12.20
2019-04-29T21:18:02.095Z,13.03
2019-04-29T21:23:42.543Z,14.80
2019-04-29T21:29:18.106Z,16.97
2019-04-29T21:34:47.610Z,12.33
2019-04-29T21:40:20.672Z,13.83
2019-04-29T21:45:50.126Z,13.10
2019-04-29T21:51:19.520Z,12.33
2019-04-29T21:56:48.991Z,12.37
2019-04-29T22:02:19.889Z,13.97
2019-04-29T22:07:49.365Z,9.50
2019-04-29T22:13:18.812Z,12.50
2019-04-29T22:18:51.930Z,9.40
2019-04-29T22:24:21.840Z,8.30
2019-04-29T22:29:50.612Z,18.73
2019-04-29T22:35:20.122Z,12.07
2019-04-29T22:40:50.880Z,10.40
2019-04-29T22:46:20.467Z,9.07
2019-04-29T22:51:53.593Z,9.90
2019-04-29T22:57:22.905Z,11.73
2019-04-29T23:02:51.990Z,11.93
2019-04-29T23:08:21.334Z,13.17
2019-04-29T23:13:50.742Z,11.10
2019-04-29T23:19:20.195Z,9.10
2019-04-29T23:25:00.530Z,7.90
2019-04-29T23:30:29.975Z,10.17
2019-04-29T23:35:59.366Z,9.83
2019-04-29T23:41:33.117Z,10.90
2019-04-29T23:46:59.800Z,8.97
2019-04-29T23:52:29.207Z,11.47
2019-04-29T23:58:16.309Z,11.20
